Terminal Aerodrome Forecast
Issued by NWS Melbourne, FL

Home | Current Version | Previous Version | Text Only | Print | Product List | Glossary On
Versions: 1 2 3 4 5 6 7 8 9 10 11 12 13 14 15 16 17 18
000
FTUS42 KMLB 271138
TAFDAB
TAF
KDAB 271138Z 2712/2812 01009KT P6SM SCT015 BKN025 OVC050
     FM271500 02013G19KT P6SM BKN025 OVC050
     FM280100 02012KT P6SM VCSH SCT010 BKN020 OVC050=

USA.gov is the U.S. government's official web portal to all federal, state and local government web resources and services.